createdAt,value
2022-09-28T00:01:52.010Z,3.08
2022-09-28T00:04:18.340Z,2.90
2022-09-28T00:06:44.568Z,2.90
2022-09-28T00:09:10.785Z,2.63
2022-09-28T00:11:37.491Z,2.70
2022-09-28T00:14:03.825Z,2.70
2022-09-28T00:16:31.735Z,2.63
2022-09-28T00:18:58.407Z,2.33
2022-09-28T00:21:26.816Z,2.70
2022-09-28T00:24:12.444Z,2.70
2022-09-28T00:26:41.003Z,2.50
2022-09-28T00:29:07.998Z,2.90
2022-09-28T00:31:34.613Z,2.60
2022-09-28T00:34:01.780Z,2.78
2022-09-28T00:36:28.892Z,2.60
2022-09-28T00:38:56.405Z,2.80
2022-09-28T00:41:23.107Z,2.55
2022-09-28T00:43:49.386Z,2.25
2022-09-28T00:46:21.706Z,2.70
2022-09-28T00:48:58.782Z,2.25
2022-09-28T00:51:25.868Z,2.60
2022-09-28T00:53:52.762Z,2.42
2022-09-28T00:56:21.241Z,2.35
2022-09-28T00:58:50.236Z,2.65
2022-09-28T01:01:16.887Z,2.70
2022-09-28T01:03:48.496Z,2.40
2022-09-28T01:06:19.154Z,2.53
2022-09-28T01:08:45.862Z,2.67
2022-09-28T01:11:12.123Z,2.70
2022-09-28T01:13:39.579Z,2.40
2022-09-28T01:16:34.069Z,2.67
2022-09-28T01:19:09.025Z,2.30
2022-09-28T01:21:45.551Z,2.90
2022-09-28T01:24:21.659Z,2.58
2022-09-28T01:26:56.603Z,2.65
2022-09-28T01:29:37.539Z,2.30
2022-09-28T01:34:41.673Z,2.33
2022-09-28T01:37:09.850Z,2.17
2022-09-28T01:39:39.461Z,2.75
2022-09-28T01:42:09.822Z,2.55
2022-09-28T01:44:39.791Z,2.70
2022-09-28T01:47:09.210Z,2.40
2022-09-28T01:49:38.218Z,2.30
2022-09-28T01:52:08.985Z,2.75
2022-09-28T01:54:44.566Z,2.35
2022-09-28T01:57:20.022Z,2.42
2022-09-28T01:59:52.104Z,2.67
2022-09-28T02:02:23.253Z,2.60
2022-09-28T02:04:55.415Z,2.60
2022-09-28T02:07:24.324Z,2.78
2022-09-28T02:09:55.099Z,4.32
2022-09-28T02:12:33.365Z,3.42
2022-09-28T02:15:06.358Z,4.15
2022-09-28T02:17:32.587Z,3.53
2022-09-28T02:19:58.806Z,4.90
2022-09-28T02:22:28.421Z,4.63
2022-09-28T02:25:09.861Z,5.88
2022-09-28T02:27:39.345Z,4.95
2022-09-28T02:30:06.416Z,4.72
2022-09-28T02:32:35.264Z,5.07
2022-09-28T02:35:01.570Z,5.38
2022-09-28T02:37:28.031Z,5.20
2022-09-28T02:39:54.276Z,4.90
2022-09-28T02:42:36.204Z,4.97
2022-09-28T02:45:14.786Z,5.50
2022-09-28T02:47:50.583Z,5.65
2022-09-28T02:50:22.658Z,5.55
2022-09-28T02:52:51.920Z,5.13
2022-09-28T02:55:30.347Z,5.82
2022-09-28T02:58:06.883Z,5.60
2022-09-28T03:00:37.715Z,5.70
2022-09-28T03:05:39.261Z,4.65
2022-09-28T03:08:15.879Z,4.88
2022-09-28T03:10:44.752Z,5.10
2022-09-28T03:13:12.173Z,4.10
2022-09-28T03:15:38.452Z,4.40
2022-09-28T03:18:04.723Z,4.32
2022-09-28T03:20:31.570Z,4.40
2022-09-28T03:23:22.841Z,3.92
2022-09-28T03:25:43.998Z,3.97
2022-09-28T03:28:10.491Z,3.80
2022-09-28T03:30:36.794Z,3.53
2022-09-28T03:33:03.088Z,3.40
2022-09-28T03:35:29.306Z,3.10
2022-09-28T03:37:56.027Z,3.65
2022-09-28T03:40:22.299Z,3.70
2022-09-28T03:42:48.543Z,3.78
2022-09-28T03:45:14.767Z,3.60
2022-09-28T03:47:45.192Z,3.47
2022-09-28T03:50:11.543Z,3.50
2022-09-28T03:52:37.760Z,3.45
2022-09-28T03:55:04.111Z,3.85
2022-09-28T03:57:30.360Z,3.42
2022-09-28T03:59:56.579Z,3.38
2022-09-28T04:02:22.881Z,3.63
2022-09-28T04:04:49.170Z,3.53
2022-09-28T04:07:15.387Z,2.75
2022-09-28T04:09:41.623Z,3.20
2022-09-28T04:12:07.942Z,2.63
2022-09-28T04:14:34.201Z,2.70
2022-09-28T04:17:00.434Z,2.75
2022-09-28T04:19:27.392Z,2.72
2022-09-28T04:21:53.678Z,2.63
2022-09-28T04:24:20.254Z,2.63
2022-09-28T04:26:46.495Z,2.60
2022-09-28T04:29:15.906Z,2.72
2022-09-28T04:31:52.560Z,3.03
2022-09-28T04:34:20.099Z,2.58
2022-09-28T04:36:46.745Z,2.45
2022-09-28T04:39:14.196Z,2.20
2022-09-28T04:41:41.182Z,2.60
2022-09-28T04:44:07.466Z,2.50
2022-09-28T04:46:33.712Z,2.50
2022-09-28T04:49:00.032Z,2.33
2022-09-28T04:51:26.994Z,2.90
2022-09-28T04:53:53.261Z,2.55
2022-09-28T04:56:19.633Z,2.13
2022-09-28T04:58:50.330Z,2.00
2022-09-28T05:01:19.731Z,1.88
2022-09-28T05:03:46.058Z,1.63
2022-09-28T05:06:13.761Z,1.63
2022-09-28T05:08:40.008Z,1.95
2022-09-28T05:11:07.950Z,2.05
2022-09-28T05:13:40.558Z,2.08
2022-09-28T05:16:07.271Z,1.90
2022-09-28T05:18:33.621Z,1.95
2022-09-28T05:21:01.274Z,1.67
2022-09-28T05:23:27.498Z,1.48
2022-09-28T05:25:53.721Z,1.70
2022-09-28T05:28:22.428Z,1.20
2022-09-28T05:30:48.791Z,2.00
2022-09-28T05:33:15.011Z,1.55
2022-09-28T05:35:41.261Z,1.60
2022-09-28T05:38:07.479Z,1.58
2022-09-28T05:40:33.813Z,2.17
2022-09-28T05:43:01.529Z,2.08
2022-09-28T05:45:28.793Z,1.75
2022-09-28T05:47:55.116Z,1.77
2022-09-28T05:50:21.336Z,1.70
2022-09-28T05:52:56.868Z,1.25
2022-09-28T05:55:23.109Z,1.50
2022-09-28T05:57:49.334Z,1.35
2022-09-28T06:00:15.627Z,1.48
2022-09-28T06:02:41.972Z,1.70
2022-09-28T06:05:08.340Z,1.60
2022-09-28T06:07:34.576Z,1.40
2022-09-28T06:10:00.887Z,1.40
2022-09-28T06:12:27.890Z,2.03
2022-09-28T06:14:54.244Z,1.60
2022-09-28T06:17:20.466Z,1.50
2022-09-28T06:19:47.335Z,1.50
2022-09-28T06:22:13.592Z,1.48
2022-09-28T06:24:39.827Z,1.58
2022-09-28T06:27:06.170Z,1.40
2022-09-28T06:29:32.429Z,1.55
2022-09-28T06:31:58.965Z,1.08
2022-09-28T06:34:25.218Z,1.52
2022-09-28T06:36:51.519Z,1.20
2022-09-28T06:39:17.842Z,1.15
2022-09-28T06:41:44.169Z,1.08
2022-09-28T06:44:10.478Z,1.10
2022-09-28T06:46:38.072Z,1.40
2022-09-28T06:49:05.459Z,1.30
2022-09-28T06:51:31.680Z,1.25
2022-09-28T06:53:57.970Z,1.20
2022-09-28T06:56:24.265Z,0.98
2022-09-28T06:58:50.498Z,1.10
2022-09-28T07:01:16.811Z,1.25
2022-09-28T07:03:43.099Z,1.40
2022-09-28T07:06:11.285Z,1.17
2022-09-28T07:08:37.659Z,1.10
2022-09-28T07:11:07.487Z,1.38
2022-09-28T07:13:49.968Z,1.42
2022-09-28T07:16:17.699Z,1.15
2022-09-28T07:18:45.290Z,1.10
2022-09-28T07:21:23.156Z,1.40
2022-09-28T07:23:54.481Z,1.15
2022-09-28T07:26:23.736Z,1.10
2022-09-28T07:28:50.517Z,0.85
2022-09-28T07:31:16.770Z,1.10
2022-09-28T07:33:43.549Z,1.10
2022-09-28T07:36:10.564Z,1.10
2022-09-28T07:38:38.176Z,1.20
2022-09-28T07:41:14.814Z,1.40
2022-09-28T07:43:41.555Z,1.20
2022-09-28T07:46:14.696Z,1.23
2022-09-28T07:48:41.915Z,1.15
2022-09-28T07:51:08.783Z,1.10
2022-09-28T07:53:35.401Z,1.20
2022-09-28T07:56:07.159Z,1.15
2022-09-28T07:58:34.261Z,1.27
2022-09-28T08:01:04.175Z,1.33
2022-09-28T08:03:30.583Z,1.40
2022-09-28T08:06:00.778Z,1.23
2022-09-28T08:08:27.296Z,1.45
2022-09-28T08:10:53.609Z,1.15
2022-09-28T08:13:22.238Z,1.15
2022-09-28T08:15:51.835Z,1.25
2022-09-28T08:18:18.192Z,1.23
2022-09-28T08:21:03.050Z,1.13
2022-09-28T08:23:29.295Z,1.55
2022-09-28T08:25:55.579Z,1.10
2022-09-28T08:28:23.080Z,1.20
2022-09-28T08:30:49.415Z,1.20
2022-09-28T08:33:17.834Z,1.10
2022-09-28T08:35:44.368Z,1.13
2022-09-28T08:38:10.837Z,1.20
2022-09-28T08:40:55.516Z,1.02
2022-09-28T08:43:31.148Z,0.98
2022-09-28T08:45:59.209Z,0.90
2022-09-28T08:48:52.225Z,1.10
2022-09-28T08:51:25.527Z,0.80
2022-09-28T08:54:08.222Z,0.75
2022-09-28T08:56:51.690Z,0.70
2022-09-28T08:59:22.751Z,8.13
2022-09-28T09:01:55.983Z,0.63
2022-09-28T09:04:24.015Z,1.90
2022-09-28T09:07:05.268Z,0.75
2022-09-28T09:09:34.604Z,0.70
2022-09-28T09:12:13.854Z,0.50
2022-09-28T09:14:46.090Z,0.50
2022-09-28T09:17:12.354Z,0.63
2022-09-28T09:19:38.609Z,0.90
2022-09-28T09:22:21.509Z,0.60
2022-09-28T09:24:51.700Z,0.50
2022-09-28T09:27:17.902Z,0.40
2022-09-28T09:29:50.142Z,0.50
2022-09-28T09:32:22.661Z,0.50
2022-09-28T09:34:48.869Z,0.80
2022-09-28T09:37:21.321Z,0.60
2022-09-28T09:39:53.683Z,0.70
2022-09-28T09:42:23.516Z,0.90
2022-09-28T09:45:02.840Z,0.30
2022-09-28T09:47:32.028Z,0.40
2022-09-28T09:50:05.538Z,0.30
2022-09-28T09:52:37.039Z,0.30
2022-09-28T09:55:10.790Z,0.73
2022-09-28T09:57:42.731Z,0.50
2022-09-28T10:00:12.803Z,0.60
2022-09-28T10:02:39.363Z,0.40
2022-09-28T10:05:11.804Z,0.30
2022-09-28T10:07:56.867Z,0.30
2022-09-28T10:10:28.374Z,0.40
2022-09-28T10:12:55.454Z,0.20
2022-09-28T10:15:26.314Z,0.22
2022-09-28T10:17:53.841Z,0.50
2022-09-28T10:20:20.148Z,0.30
2022-09-28T10:22:46.836Z,0.30
2022-09-28T10:25:13.720Z,0.35
2022-09-28T10:27:44.383Z,0.40
2022-09-28T10:30:10.723Z,0.40
2022-09-28T10:32:38.739Z,0.40
2022-09-28T10:35:14.298Z,0.40
2022-09-28T10:37:48.275Z,0.43
2022-09-28T10:40:40.840Z,0.60
2022-09-28T10:43:16.223Z,0.50
2022-09-28T10:45:42.625Z,0.30
2022-09-28T10:48:36.285Z,0.28
2022-09-28T10:51:08.411Z,0.30
2022-09-28T10:53:37.090Z,0.30
2022-09-28T10:56:08.712Z,0.20
2022-09-28T10:58:40.387Z,0.30
2022-09-28T11:01:10.390Z,0.30
2022-09-28T11:03:50.765Z,0.20
2022-09-28T11:06:22.814Z,0.20
2022-09-28T11:08:49.330Z,0.28
2022-09-28T11:11:16.757Z,0.40
2022-09-28T11:13:45.301Z,0.30
2022-09-28T11:16:24.016Z,0.40
2022-09-28T11:18:50.339Z,0.13
2022-09-28T11:21:17.999Z,0.22
2022-09-28T11:24:05.886Z,0.30
2022-09-28T11:26:40.779Z,0.25
2022-09-28T11:29:18.383Z,0.30
2022-09-28T11:31:44.664Z,0.30
2022-09-28T11:34:17.233Z,0.38
2022-09-28T11:36:49.352Z,0.40
2022-09-28T11:39:45.195Z,0.20
2022-09-28T11:42:19.629Z,0.32
2022-09-28T11:44:46.917Z,0.22
2022-09-28T11:47:26.923Z,0.40
2022-09-28T11:49:59.084Z,0.30
2022-09-28T11:52:38.835Z,0.20
2022-09-28T11:55:13.931Z,0.20
2022-09-28T11:57:41.948Z,0.30
2022-09-28T12:00:20.786Z,0.30
2022-09-28T12:02:58.634Z,0.32
2022-09-28T12:05:36.808Z,0.52
2022-09-28T12:08:15.140Z,0.30
2022-09-28T12:10:51.705Z,0.30
2022-09-28T12:13:22.395Z,0.28
2022-09-28T12:18:40.776Z,0.20
2022-09-28T12:21:27.711Z,0.40
2022-09-28T12:23:56.830Z,0.40
2022-09-28T12:26:41.689Z,0.25
2022-09-28T12:29:17.859Z,0.20
2022-09-28T12:31:50.177Z,0.30
2022-09-28T12:34:16.588Z,0.38
2022-09-28T12:36:56.103Z,0.20
2022-09-28T12:39:53.492Z,0.20
2022-09-28T12:42:27.547Z,0.30
2022-09-28T12:45:11.780Z,0.30
2022-09-28T12:47:53.918Z,0.40
2022-09-28T12:50:41.606Z,0.20
2022-09-28T12:53:25.965Z,0.32
2022-09-28T12:56:10.660Z,0.30
2022-09-28T12:58:36.899Z,0.35
2022-09-28T13:01:08.918Z,0.30
2022-09-28T13:03:46.589Z,0.28
2022-09-28T13:06:19.300Z,0.30
2022-09-28T13:09:01.371Z,0.30
2022-09-28T13:11:41.124Z,0.30
2022-09-28T13:14:07.936Z,0.30
2022-09-28T13:16:34.659Z,0.40
2022-09-28T13:19:14.307Z,0.30
2022-09-28T13:21:44.078Z,0.30
2022-09-28T13:24:30.982Z,0.40
2022-09-28T13:27:04.418Z,0.50
2022-09-28T13:29:31.895Z,0.40
2022-09-28T13:31:59.260Z,0.70
2022-09-28T13:34:27.692Z,0.80
2022-09-28T13:37:12.774Z,0.50
2022-09-28T13:39:45.293Z,0.50
2022-09-28T13:42:31.793Z,0.55
2022-09-28T13:45:17.047Z,0.70
2022-09-28T13:48:02.111Z,0.90
2022-09-28T13:50:51.728Z,1.08
2022-09-28T13:53:19.130Z,1.33
2022-09-28T13:55:53.801Z,0.80
2022-09-28T13:58:25.901Z,0.80
2022-09-28T14:01:01.300Z,0.60
2022-09-28T14:03:52.763Z,0.68
2022-09-28T14:06:22.130Z,0.85
2022-09-28T14:09:07.136Z,0.70
2022-09-28T14:11:36.733Z,0.90
2022-09-28T14:14:11.677Z,0.70
2022-09-28T14:16:38.784Z,0.60
2022-09-28T14:19:11.860Z,0.68
2022-09-28T14:21:57.970Z,0.70
2022-09-28T14:24:34.279Z,0.65
2022-09-28T14:27:10.610Z,0.90
2022-09-28T14:29:38.136Z,0.70
2022-09-28T14:32:10.616Z,0.75
2022-09-28T14:34:36.888Z,0.60
2022-09-28T14:37:23.378Z,0.70
2022-09-28T14:40:08.817Z,0.70
2022-09-28T14:42:36.427Z,0.60
2022-09-28T14:45:06.285Z,0.77
2022-09-28T14:47:33.774Z,0.68
2022-09-28T14:50:00.646Z,0.50
2022-09-28T14:52:38.859Z,0.30
2022-09-28T14:55:11.602Z,0.40
2022-09-28T14:57:40.459Z,0.43
2022-09-28T15:00:21.914Z,0.30
2022-09-28T15:02:49.829Z,0.38
2022-09-28T15:05:17.911Z,0.30
2022-09-28T15:07:49.474Z,0.75
2022-09-28T15:10:27.774Z,0.90
2022-09-28T15:12:55.241Z,0.50
2022-09-28T15:15:28.354Z,0.47
2022-09-28T15:18:16.301Z,0.60
2022-09-28T15:20:45.404Z,0.43
2022-09-28T15:23:26.859Z,0.50
2022-09-28T15:25:54.147Z,0.60
2022-09-28T15:28:24.547Z,0.38
2022-09-28T15:30:51.517Z,0.45
2022-09-28T15:33:43.257Z,0.57
2022-09-28T15:36:13.692Z,0.40
2022-09-28T15:38:40.756Z,0.60
2022-09-28T15:41:07.603Z,0.70
2022-09-28T15:43:34.090Z,0.60
2022-09-28T15:46:07.890Z,0.85
2022-09-28T15:48:50.927Z,0.57
2022-09-28T15:51:19.024Z,0.50
2022-09-28T15:53:51.431Z,0.50
2022-09-28T15:56:17.676Z,0.40
2022-09-28T15:58:43.918Z,0.30
2022-09-28T16:01:36.103Z,0.50
2022-09-28T16:04:23.215Z,0.40
2022-09-28T16:07:08.944Z,0.40
2022-09-28T16:09:53.495Z,0.30
2022-09-28T16:12:19.958Z,0.30
2022-09-28T16:14:48.351Z,0.50
2022-09-28T16:17:16.777Z,0.30
2022-09-28T16:19:43.694Z,0.38
2022-09-28T16:22:16.245Z,0.30
2022-09-28T16:24:52.742Z,0.30
2022-09-28T16:27:27.240Z,0.40
2022-09-28T16:30:24.290Z,0.30
2022-09-28T16:32:53.867Z,0.40
2022-09-28T16:35:22.583Z,0.30
2022-09-28T16:38:18.612Z,0.40
2022-09-28T16:40:47.901Z,0.35
2022-09-28T16:43:34.377Z,0.32
2022-09-28T16:46:01.762Z,0.35
2022-09-28T16:48:34.166Z,0.60
2022-09-28T16:51:00.500Z,0.90
2022-09-28T16:54:48.353Z,0.90
2022-09-28T16:56:52.173Z,0.80
2022-09-28T16:59:18.424Z,0.70
2022-09-28T17:01:44.722Z,0.80
2022-09-28T17:04:11.996Z,0.80
2022-09-28T17:06:38.740Z,0.95
2022-09-28T17:09:07.000Z,1.30
2022-09-28T17:11:33.470Z,1.67
2022-09-28T17:14:00.043Z,1.50
2022-09-28T17:16:57.351Z,1.65
2022-09-28T17:19:24.786Z,2.10
2022-09-28T17:21:52.938Z,3.55
2022-09-28T17:24:19.476Z,2.58
2022-09-28T17:26:47.007Z,2.90
2022-09-28T17:29:14.574Z,4.28
2022-09-28T17:31:41.766Z,2.50
2022-09-28T17:34:08.251Z,2.28
2022-09-28T17:36:40.692Z,1.52
2022-09-28T17:39:10.236Z,1.30
2022-09-28T17:41:37.413Z,1.10
2022-09-28T17:44:03.663Z,0.90
2022-09-28T17:46:31.236Z,0.80
2022-09-28T17:48:59.512Z,0.80
2022-09-28T17:51:26.839Z,0.93
2022-09-28T17:53:56.014Z,0.90
2022-09-28T17:56:22.599Z,0.85
2022-09-28T17:58:49.050Z,1.00
2022-09-28T18:01:15.464Z,2.40
2022-09-28T18:03:42.060Z,4.10
2022-09-28T18:06:12.973Z,5.50
2022-09-28T18:08:39.289Z,4.40
2022-09-28T18:11:05.725Z,6.47
2022-09-28T18:13:32.131Z,6.18
2022-09-28T18:15:58.405Z,5.00
2022-09-28T18:18:25.370Z,4.82
2022-09-28T18:20:52.106Z,4.05
2022-09-28T18:23:18.431Z,3.70
2022-09-28T18:25:45.189Z,3.47
2022-09-28T18:28:11.995Z,2.33
2022-09-28T18:30:39.397Z,2.75
2022-09-28T18:33:06.085Z,3.03
2022-09-28T18:35:32.428Z,2.25
2022-09-28T18:37:58.720Z,2.90
2022-09-28T18:40:25.010Z,2.15
2022-09-28T18:42:51.460Z,2.10
2022-09-28T18:45:18.505Z,2.08
2022-09-28T18:47:45.196Z,1.75
2022-09-28T18:50:15.469Z,1.50
2022-09-28T18:52:43.099Z,1.70
2022-09-28T18:55:09.835Z,1.45
2022-09-28T18:57:36.175Z,1.40
2022-09-28T19:00:05.011Z,1.50
2022-09-28T19:02:31.827Z,1.63
2022-09-28T19:04:58.327Z,1.63
2022-09-28T19:07:24.691Z,1.52
2022-09-28T19:09:50.988Z,1.95
2022-09-28T19:12:17.296Z,1.70
2022-09-28T19:14:43.518Z,2.05
2022-09-28T19:17:10.167Z,1.90
2022-09-28T19:19:36.404Z,2.10
2022-09-28T19:22:02.684Z,2.10
2022-09-28T19:24:28.919Z,1.88
2022-09-28T19:26:55.210Z,2.22
2022-09-28T19:29:21.748Z,2.10
2022-09-28T19:31:48.893Z,2.70
2022-09-28T19:34:15.417Z,3.20
2022-09-28T19:36:42.031Z,4.75
2022-09-28T19:39:08.370Z,3.42
2022-09-28T19:41:43.489Z,3.53
2022-09-28T19:44:15.327Z,3.25
2022-09-28T19:46:41.948Z,3.80
2022-09-28T19:49:11.727Z,4.32
2022-09-28T19:51:46.914Z,4.60
2022-09-28T19:54:32.088Z,4.20
2022-09-28T19:57:07.291Z,4.00
2022-09-28T19:59:33.881Z,4.43
2022-09-28T20:02:04.541Z,4.80
2022-09-28T20:04:30.801Z,5.00
2022-09-28T20:06:57.047Z,5.20
2022-09-28T20:09:23.318Z,5.28
2022-09-28T20:11:51.699Z,6.40
2022-09-28T20:14:18.584Z,7.78
2022-09-28T20:16:46.124Z,7.78
2022-09-28T20:19:12.764Z,5.90
2022-09-28T20:21:39.034Z,4.82
2022-09-28T20:24:05.329Z,3.83
2022-09-28T20:26:37.259Z,4.35
2022-09-28T20:29:04.543Z,4.45
2022-09-28T20:31:30.823Z,3.75
2022-09-28T20:33:57.523Z,4.50
2022-09-28T20:36:24.646Z,4.28
2022-09-28T20:38:51.863Z,4.53
2022-09-28T20:41:19.974Z,5.05
2022-09-28T20:43:46.708Z,9.52
2022-09-28T20:46:13.632Z,8.77
2022-09-28T20:48:40.321Z,10.15
2022-09-28T20:51:10.135Z,9.13
2022-09-28T20:53:37.236Z,10.18
2022-09-28T20:56:13.690Z,9.23
2022-09-28T20:58:40.643Z,7.45
2022-09-28T21:01:09.445Z,6.35
2022-09-28T21:03:36.124Z,5.28
2022-09-28T21:06:02.878Z,4.57
2022-09-28T21:08:29.637Z,3.90
2022-09-28T21:10:55.910Z,4.30
2022-09-28T21:13:22.771Z,4.35
2022-09-28T21:15:49.368Z,4.60
2022-09-28T21:18:16.270Z,4.70
2022-09-28T21:20:49.560Z,4.07
2022-09-28T21:23:16.360Z,4.43
2022-09-28T21:25:45.427Z,4.32
2022-09-28T21:28:12.930Z,4.20
2022-09-28T21:30:40.105Z,4.00
2022-09-28T21:33:06.387Z,4.40
2022-09-28T21:35:36.530Z,4.10
2022-09-28T21:38:03.375Z,4.07
2022-09-28T21:40:29.747Z,4.00
2022-09-28T21:42:56.522Z,4.10
2022-09-28T21:45:25.022Z,4.28
2022-09-28T21:47:55.068Z,4.03
2022-09-28T21:50:22.986Z,3.97
2022-09-28T21:52:50.260Z,4.05
2022-09-28T21:55:16.769Z,3.90
2022-09-28T21:57:44.947Z,4.05
2022-09-28T22:00:11.632Z,4.18
2022-09-28T22:02:38.826Z,4.40
2022-09-28T22:05:06.473Z,4.05
2022-09-28T22:07:33.005Z,4.15
2022-09-28T22:09:59.233Z,3.90
2022-09-28T22:12:25.495Z,4.07
2022-09-28T22:14:51.716Z,4.28
2022-09-28T22:17:17.940Z,4.25
2022-09-28T22:19:44.206Z,4.20
2022-09-28T22:22:10.467Z,4.20
2022-09-28T22:24:36.712Z,3.88
2022-09-28T22:27:02.989Z,3.60
2022-09-28T22:29:29.252Z,4.40
2022-09-28T22:32:02.084Z,3.75
2022-09-28T22:34:30.702Z,3.90
2022-09-28T22:37:00.303Z,3.42
2022-09-28T22:39:26.569Z,3.25
2022-09-28T22:41:52.813Z,3.50
2022-09-28T22:44:19.725Z,3.20
2022-09-28T22:46:46.406Z,3.25
2022-09-28T22:49:12.872Z,3.28
2022-09-28T22:51:39.790Z,3.00
2022-09-28T22:54:06.614Z,2.95
2022-09-28T22:56:32.906Z,3.55
2022-09-28T22:58:59.168Z,3.25
2022-09-28T23:01:26.667Z,3.13
2022-09-28T23:03:53.540Z,3.60
2022-09-28T23:06:21.011Z,2.97
2022-09-28T23:08:47.741Z,3.00
2022-09-28T23:11:14.312Z,3.53
2022-09-28T23:13:40.578Z,3.33
2022-09-28T23:16:08.078Z,3.35
2022-09-28T23:18:35.234Z,3.13
2022-09-28T23:21:02.603Z,3.10
2022-09-28T23:23:28.892Z,2.85
2022-09-28T23:25:55.156Z,2.45
2022-09-28T23:28:22.192Z,2.75
2022-09-28T23:30:48.868Z,2.67
2022-09-28T23:33:15.878Z,3.05
2022-09-28T23:35:42.299Z,3.08
2022-09-28T23:38:13.390Z,3.30
2022-09-28T23:40:40.481Z,3.17
2022-09-28T23:43:07.358Z,3.13
2022-09-28T23:45:33.732Z,3.00
2022-09-28T23:47:59.970Z,4.10
2022-09-28T23:50:26.399Z,4.20
2022-09-28T23:52:52.692Z,4.05
2022-09-28T23:55:19.095Z,3.50
2022-09-28T23:57:46.099Z,3.17
